Time;durP1;ratioP1;P1;durP2;ratioP2;P2;SDS_P1;SDS_P2;PMS_P1;PMS_P2;Temp;Humidity;BMP_temperature;BMP_pressure;BME280_temperature;BME280_humidity;BME280_pressure;Samples;Min_cycle;Max_cycle;Signal;HPM_P1;HPM_P2
2022/05/17 00:00:49;;;;;;;4.73;3.43;;;15.10;99.90;;;;;;5052872;28;20473;-64
2022/05/17 00:03:16;;;;;;;7.73;3.53;;;15.10;99.90;;;;;;5052911;28;20857;-64
2022/05/17 00:05:45;;;;;;;3.97;2.80;;;15.10;99.90;;;;;;5053514;28;20527;-64
2022/05/17 00:08:13;;;;;;;4.97;3.73;;;15.10;99.90;;;;;;5052567;28;20989;-64
2022/05/17 00:10:41;;;;;;;6.80;3.50;;;15.10;99.90;;;;;;5053248;28;20575;-63
2022/05/17 00:13:08;;;;;;;5.83;3.67;;;15.20;99.90;;;;;;5052565;28;20465;-65
2022/05/17 00:15:36;;;;;;;5.23;3.40;;;15.20;99.90;;;;;;5053175;28;20443;-64
2022/05/17 00:18:03;;;;;;;6.43;4.63;;;15.20;99.90;;;;;;5052793;28;20513;-64
2022/05/17 00:20:30;;;;;;;6.67;3.13;;;15.20;99.90;;;;;;5053134;28;20441;-63
2022/05/17 00:22:59;;;;;;;5.17;3.23;;;15.20;99.90;;;;;;5051986;28;20508;-65
2022/05/17 00:25:27;;;;;;;4.67;2.97;;;15.20;99.90;;;;;;5053067;28;20445;-64
2022/05/17 00:27:54;;;;;;;4.57;3.83;;;15.20;99.90;;;;;;5052156;28;20516;-65
2022/05/17 00:30:21;;;;;;;5.37;3.00;;;15.20;99.80;;;;;;5052768;28;20518;-64
2022/05/17 00:32:48;;;;;;;3.77;2.70;;;15.20;99.70;;;;;;5051661;28;20520;-64
2022/05/17 00:35:15;;;;;;;2.87;2.47;;;15.20;99.60;;;;;;5052746;28;20519;-64
2022/05/17 00:37:43;;;;;;;7.60;3.60;;;15.20;99.50;;;;;;5051986;28;20934;-64
2022/05/17 00:40:14;;;;;;;7.40;2.93;;;15.30;99.50;;;;;;5053005;28;20927;-63
2022/05/17 00:42:41;;;;;;;4.20;2.87;;;15.30;99.40;;;;;;5052211;28;20451;-63
2022/05/17 00:45:09;;;;;;;4.37;2.97;;;15.30;99.20;;;;;;5052966;28;20448;-63
2022/05/17 00:47:42;;;;;;;4.40;3.00;;;15.20;99.10;;;;;;5051818;28;20477;-64
2022/05/17 00:50:14;;;;;;;4.10;3.20;;;15.10;99.40;;;;;;5052724;28;20579;-64
2022/05/17 00:52:46;;;;;;;4.70;3.37;;;15.10;99.50;;;;;;5052136;28;20512;-64
2022/05/17 00:55:18;;;;;;;5.90;3.57;;;15.00;99.30;;;;;;5052672;28;20527;-65
2022/05/17 00:57:50;;;;;;;4.30;2.60;;;15.00;99.30;;;;;;5051973;28;20433;-64
2022/05/17 01:00:19;;;;;;;7.43;3.10;;;15.00;99.30;;;;;;5051416;28;20437;-64
2022/05/17 01:02:51;;;;;;;5.00;3.00;;;15.10;99.30;;;;;;5051750;28;20499;-64
2022/05/17 01:05:19;;;;;;;6.33;5.60;;;15.00;99.10;;;;;;5052625;28;20543;-64
2022/05/17 01:07:52;;;;;;;4.50;4.00;;;15.00;99.10;;;;;;5051425;28;20440;-65
2022/05/17 01:10:21;;;;;;;4.40;2.73;;;15.10;99.30;;;;;;5052314;28;20571;-64
2022/05/17 01:14:57;;;;;;;6.10;3.30;;;15.00;99.00;;;;;;5051470;28;20516;-64
2022/05/17 01:15:35;;;;;;;3.63;2.67;;;15.00;98.90;;;;;;5052310;28;20424;-64
2022/05/17 01:18:02;;;;;;;4.43;3.23;;;14.90;99.00;;;;;;5051470;28;20433;-64
2022/05/17 01:20:29;;;;;;;4.43;3.00;;;14.90;99.00;;;;;;5052283;28;20473;-64
2022/05/17 01:22:58;;;;;;;3.97;3.00;;;14.90;98.90;;;;;;5051409;28;20532;-64
2022/05/17 01:25:25;;;;;;;3.20;2.30;;;14.90;98.80;;;;;;5052368;28;20429;-64
2022/05/17 01:27:56;;;;;;;4.60;3.70;;;14.90;98.80;;;;;;5051194;28;20524;-64
2022/05/17 01:30:25;;;;;;;11.30;2.77;;;14.90;99.10;;;;;;5052075;28;20484;-64
2022/05/17 01:32:52;;;;;;;4.00;2.80;;;14.90;99.00;;;;;;5051637;28;20470;-64
2022/05/17 01:35:20;;;;;;;4.60;3.17;;;14.80;98.60;;;;;;5052229;28;20523;-64
2022/05/17 01:37:50;;;;;;;4.67;3.07;;;14.70;98.70;;;;;;5050969;28;20464;-64
2022/05/17 01:40:19;;;;;;;6.43;3.27;;;14.70;98.70;;;;;;5050689;28;20887;-69
2022/05/17 01:42:45;;;;;;;3.93;3.50;;;14.70;98.70;;;;;;5052165;28;20443;-64
2022/05/17 01:45:12;;;;;;;3.60;2.70;;;14.70;98.70;;;;;;5051443;28;20469;-64
2022/05/17 01:47:39;;;;;;;7.07;4.13;;;14.80;98.90;;;;;;5052050;28;20496;-64
2022/05/17 01:50:07;;;;;;;8.23;4.07;;;14.70;99.10;;;;;;5051953;28;20563;-63
2022/05/17 01:52:34;;;;;;;5.17;3.90;;;14.70;99.20;;;;;;5050990;28;20607;-64
2022/05/17 01:55:01;;;;;;;9.40;3.73;;;14.60;99.10;;;;;;5052152;28;20975;-64
2022/05/17 01:57:29;;;;;;;5.23;3.27;;;14.60;99.30;;;;;;5051469;28;20520;-64
2022/05/17 01:59:56;;;;;;;4.60;3.60;;;14.60;99.30;;;;;;5052269;28;20452;-65
2022/05/17 02:02:24;;;;;;;5.83;4.33;;;14.60;99.30;;;;;;5051422;28;20444;-63
2022/05/17 02:04:52;;;;;;;6.00;3.60;;;14.50;99.60;;;;;;5050902;28;20979;-64
2022/05/17 02:07:19;;;;;;;4.83;3.33;;;14.50;99.80;;;;;;5052187;28;20477;-64
2022/05/17 02:09:47;;;;;;;6.23;3.73;;;14.50;99.90;;;;;;5051028;28;20524;-64
2022/05/17 02:12:14;;;;;;;4.30;3.10;;;14.50;99.90;;;;;;5053560;28;20437;-64
2022/05/17 02:14:42;;;;;;;7.07;3.33;;;14.50;99.90;;;;;;5055322;28;20477;-64
2022/05/17 02:17:09;;;;;;;5.20;3.43;;;14.50;99.90;;;;;;5055765;28;20536;-64
2022/05/17 02:19:36;;;;;;;6.10;3.60;;;14.50;99.90;;;;;;5054798;28;20483;-64
2022/05/17 02:22:04;;;;;;;4.20;3.03;;;14.60;99.90;;;;;;5055489;28;20991;-64
2022/05/17 02:24:31;;;;;;;4.83;2.73;;;14.60;99.90;;;;;;5055047;28;20440;-65
2022/05/17 02:26:58;;;;;;;9.10;3.73;;;14.50;99.90;;;;;;5035646;28;20916;-64
2022/05/17 02:29:29;;;;;;;4.73;3.67;;;14.50;99.90;;;;;;5047205;28;20472;-66
2022/05/17 02:31:58;;;;;;;4.93;3.53;;;14.50;99.90;;;;;;5035185;28;20481;-64
2022/05/17 02:34:25;;;;;;;5.40;3.90;;;14.50;99.90;;;;;;5046696;28;20502;-64
2022/05/17 02:36:52;;;;;;;7.43;3.47;;;14.50;99.90;;;;;;5055087;28;20490;-64
2022/05/17 02:39:19;;;;;;;6.07;4.23;;;14.50;99.90;;;;;;5054586;28;20532;-65
2022/05/17 02:41:46;;;;;;;5.50;4.30;;;14.40;99.90;;;;;;5055382;28;20480;-64
2022/05/17 02:44:14;;;;;;;9.70;5.27;;;14.40;99.90;;;;;;5054646;28;20484;-64
2022/05/17 02:46:41;;;;;;;8.00;5.30;;;14.40;99.70;;;;;;5054717;28;21014;-65
2022/05/17 02:49:10;;;;;;;10.47;6.30;;;14.30;99.90;;;;;;5054248;28;20512;-64
2022/05/17 02:51:37;;;;;;;10.73;5.93;;;14.20;99.70;;;;;;5055111;28;20568;-64
2022/05/17 02:54:06;;;;;;;6.77;4.53;;;14.20;99.80;;;;;;5054186;28;20491;-64
2022/05/17 02:56:33;;;;;;;6.27;5.17;;;14.10;99.70;;;;;;5054179;28;20437;-64
2022/05/17 02:59:00;;;;;;;6.53;3.57;;;14.10;99.70;;;;;;5053850;28;20532;-64
2022/05/17 03:01:27;;;;;;;7.07;4.17;;;14.10;99.70;;;;;;5054738;28;20520;-64
2022/05/17 03:03:54;;;;;;;7.00;5.30;;;14.10;99.50;;;;;;5054164;28;20436;-64
2022/05/17 03:06:23;;;;;;;4.20;2.67;;;14.00;99.40;;;;;;5054573;28;20532;-65
2022/05/17 03:08:50;;;;;;;3.97;3.20;;;14.00;99.40;;;;;;5054109;28;20515;-64
2022/05/17 03:11:18;;;;;;;4.07;3.10;;;13.90;99.20;;;;;;5054473;28;20575;-64
2022/05/17 03:13:45;;;;;;;4.00;2.83;;;13.90;99.00;;;;;;5053460;28;20479;-64
2022/05/17 03:16:12;;;;;;;7.83;3.40;;;13.90;98.80;;;;;;5054893;28;20862;-64
2022/05/17 03:18:40;;;;;;;4.63;2.17;;;13.90;99.10;;;;;;5053978;28;20891;-64
2022/05/17 03:21:07;;;;;;;6.60;3.60;;;13.90;99.20;;;;;;5054606;28;20543;-64
2022/05/17 03:23:35;;;;;;;3.80;3.10;;;13.80;99.30;;;;;;5053689;28;20524;-65
2022/05/17 03:26:03;;;;;;;5.50;3.67;;;13.80;99.60;;;;;;5053966;28;20818;-64
2022/05/17 03:28:30;;;;;;;4.40;3.47;;;13.80;99.90;;;;;;5054416;28;20440;-63
2022/05/17 03:30:56;;;;;;;4.73;3.47;;;13.80;99.90;;;;;;5053465;28;20894;-63
2022/05/17 03:33:23;;;;;;;6.77;4.00;;;13.80;99.90;;;;;;5054164;28;20479;-63
2022/05/17 03:35:50;;;;;;;7.70;4.17;;;13.80;99.80;;;;;;5053548;28;20628;-65
2022/05/17 03:38:17;;;;;;;6.30;4.03;;;13.80;99.80;;;;;;5053989;28;20528;-64
2022/05/17 03:40:46;;;;;;;5.90;4.03;;;13.80;99.70;;;;;;5053242;28;20535;-63
2022/05/17 03:43:13;;;;;;;6.53;4.07;;;13.80;99.50;;;;;;5052528;28;20944;-64
2022/05/17 03:45:41;;;;;;;6.30;3.97;;;13.70;99.50;;;;;;5052511;28;20452;-63
2022/05/17 03:48:08;;;;;;;5.53;4.23;;;13.60;99.50;;;;;;5053857;28;20559;-63
2022/05/17 03:50:35;;;;;;;3.47;3.03;;;13.70;99.90;;;;;;5053012;28;20561;-64
2022/05/17 03:53:02;;;;;;;3.70;3.03;;;13.70;99.70;;;;;;5053697;28;21008;-64
2022/05/17 03:55:29;;;;;;;3.60;2.80;;;13.80;99.60;;;;;;5052879;28;21006;-64
2022/05/17 03:57:58;;;;;;;8.30;3.50;;;13.70;99.30;;;;;;5053643;28;20441;-64
2022/05/17 04:00:25;;;;;;;4.93;3.63;;;13.70;99.50;;;;;;5052879;28;20476;-64
2022/05/17 04:02:52;;;;;;;9.87;4.67;;;13.70;99.50;;;;;;5052582;28;20512;-64
2022/05/17 04:05:19;;;;;;;4.20;2.80;;;13.70;99.60;;;;;;5052905;28;20528;-63
2022/05/17 04:07:46;;;;;;;6.13;4.60;;;13.70;99.70;;;;;;5053314;28;20441;-63
2022/05/17 04:10:16;;;;;;;8.33;4.90;;;13.70;99.80;;;;;;5053346;28;20473;-65
2022/05/17 04:12:43;;;;;;;4.63;3.30;;;13.70;99.80;;;;;;5053867;28;20512;-64
2022/05/17 04:15:15;;;;;;;9.80;5.03;;;13.70;99.80;;;;;;5054039;28;20525;-64
2022/05/17 04:17:42;;;;;;;5.63;4.23;;;13.70;99.70;;;;;;5053371;28;20449;-65
2022/05/17 04:20:14;;;;;;;7.37;4.70;;;13.70;99.80;;;;;;5053627;28;20473;-63
2022/05/17 04:22:43;;;;;;;8.13;3.90;;;13.80;99.90;;;;;;5053148;28;20491;-64
2022/05/17 04:25:11;;;;;;;4.13;3.10;;;13.80;99.70;;;;;;5053802;28;20490;-65
2022/05/17 04:27:38;;;;;;;4.00;3.33;;;13.80;99.90;;;;;;5049457;28;20452;-65
2022/05/17 04:30:06;;;;;;;6.63;3.00;;;13.80;99.90;;;;;;5051835;28;20519;-63
2022/05/17 04:32:34;;;;;;;5.70;3.47;;;13.80;99.80;;;;;;5050151;28;21030;-64
2022/05/17 04:35:01;;;;;;;5.67;4.20;;;13.80;99.70;;;;;;5049581;28;20536;-63
2022/05/17 04:37:28;;;;;;;8.20;3.73;;;13.80;99.70;;;;;;5049042;28;20911;-66
2022/05/17 04:39:55;;;;;;;6.47;4.20;;;13.80;99.80;;;;;;5051554;28;20475;-64
2022/05/17 04:42:23;;;;;;;6.63;4.40;;;13.80;99.90;;;;;;5048636;28;20795;-64
2022/05/17 04:44:50;;;;;;;5.87;3.63;;;13.80;99.90;;;;;;5051115;28;20444;-64
2022/05/17 04:47:17;;;;;;;7.13;4.53;;;13.90;99.90;;;;;;5050735;28;20461;-65
2022/05/17 04:49:46;;;;;;;9.07;4.37;;;13.80;99.60;;;;;;5046742;28;20524;-64
2022/05/17 04:52:13;;;;;;;7.50;4.50;;;13.80;99.90;;;;;;5050843;28;20489;-65
2022/05/17 04:54:40;;;;;;;8.53;4.73;;;13.70;99.90;;;;;;5051136;28;20440;-63
2022/05/17 04:57:08;;;;;;;6.27;3.70;;;13.70;99.90;;;;;;5050549;28;20441;-65
2022/05/17 04:59:35;;;;;;;5.67;3.53;;;13.80;99.90;;;;;;5050908;28;20425;-64
2022/05/17 05:02:02;;;;;;;4.23;3.40;;;13.80;99.90;;;;;;5050749;28;20503;-64
2022/05/17 05:04:29;;;;;;;4.20;3.00;;;13.90;99.90;;;;;;5051018;28;20502;-64
2022/05/17 05:06:57;;;;;;;6.23;4.10;;;14.00;99.90;;;;;;5049896;28;20479;-64
2022/05/17 05:09:25;;;;;;;6.73;3.30;;;14.10;99.90;;;;;;5049998;28;20520;-65
2022/05/17 05:11:52;;;;;;;7.63;4.23;;;14.10;99.90;;;;;;5047570;28;20489;-64
2022/05/17 05:14:24;;;;;;;5.43;3.53;;;14.20;99.90;;;;;;5049964;28;20443;-64
2022/05/17 05:16:51;;;;;;;6.50;3.57;;;14.30;99.90;;;;;;5046418;28;20465;-64
2022/05/17 05:19:18;;;;;;;8.60;3.83;;;14.30;99.90;;;;;;5050747;28;20448;-64
2022/05/17 05:21:45;;;;;;;7.80;4.77;;;14.30;99.90;;;;;;5050631;28;20840;-64
2022/05/17 05:24:13;;;;;;;6.23;4.70;;;14.30;99.90;;;;;;5049405;28;20480;-64
2022/05/17 05:26:41;;;;;;;6.50;4.00;;;14.30;99.90;;;;;;5044760;28;20441;-64
2022/05/17 05:29:08;;;;;;;6.10;3.97;;;14.40;99.90;;;;;;5048695;28;20437;-63
2022/05/17 05:31:35;;;;;;;10.70;8.20;;;14.40;99.90;;;;;;5050260;28;20487;-64
2022/05/17 05:34:01;;;;;;;12.13;9.40;;;14.50;99.90;;;;;;5049394;28;20459;-64
2022/05/17 05:36:29;;;;;;;19.80;11.73;;;14.60;99.90;;;;;;5051046;28;20441;-64
2022/05/17 05:38:56;;;;;;;10.97;6.27;;;14.60;99.90;;;;;;5049001;28;20451;-64
2022/05/17 05:41:25;;;;;;;7.97;6.27;;;14.70;99.90;;;;;;5049131;28;20437;-64
2022/05/17 05:43:52;;;;;;;13.87;5.43;;;14.70;99.90;;;;;;5048300;28;20521;-64
2022/05/17 05:46:18;;;;;;;5.67;3.97;;;14.70;99.90;;;;;;5043136;28;20440;-63
2022/05/17 05:48:46;;;;;;;6.07;3.33;;;14.70;99.90;;;;;;5054008;28;20555;-64
2022/05/17 05:51:12;;;;;;;5.23;4.00;;;14.90;99.90;;;;;;5053355;28;20485;-64
2022/05/17 05:53:39;;;;;;;11.63;5.23;;;14.90;99.90;;;;;;5053375;28;21002;-64
2022/05/17 05:56:07;;;;;;;9.73;3.53;;;15.00;99.90;;;;;;5052844;28;20532;-63
2022/05/17 05:58:38;;;;;;;5.60;4.00;;;15.10;99.90;;;;;;5053561;28;20916;-64
2022/05/17 06:01:05;;;;;;;4.60;3.33;;;15.20;99.90;;;;;;5053747;28;20475;-65
2022/05/17 06:03:32;;;;;;;3.90;3.50;;;15.30;99.90;;;;;;5048568;28;20518;-65
2022/05/17 06:05:59;;;;;;;5.77;3.40;;;15.50;99.90;;;;;;5053099;28;20455;-64
2022/05/17 06:08:27;;;;;;;5.27;3.13;;;15.60;99.90;;;;;;5053474;28;20498;-64
2022/05/17 06:10:54;;;;;;;11.83;4.03;;;15.80;99.90;;;;;;5052758;28;20435;-64
2022/05/17 06:13:21;;;;;;;14.30;9.07;;;15.90;99.90;;;;;;5050117;28;20433;-65
2022/05/17 06:15:52;;;;;;;9.00;5.60;;;16.10;99.90;;;;;;5052327;28;20771;-64
2022/05/17 06:18:22;;;;;;;4.70;3.57;;;16.20;99.90;;;;;;5052374;28;20433;-65
2022/05/17 06:20:50;;;;;;;5.23;3.10;;;16.30;99.90;;;;;;5052566;28;20436;-64
2022/05/17 06:23:18;;;;;;;4.40;3.10;;;16.50;99.90;;;;;;5052549;28;20931;-65
2022/05/17 06:25:45;;;;;;;6.83;5.23;;;16.60;99.90;;;;;;5053612;28;20520;-65
2022/05/17 06:28:12;;;;;;;3.90;3.13;;;16.70;99.90;;;;;;5053904;28;20461;-64
2022/05/17 06:30:41;;;;;;;4.43;3.27;;;16.80;99.90;;;;;;5049883;28;20524;-64
2022/05/17 06:33:10;;;;;;;7.33;3.93;;;16.90;99.40;;;;;;5053080;28;20575;-64
2022/05/17 06:35:37;;;;;;;6.30;4.30;;;17.00;99.00;;;;;;5053786;28;20464;-65
2022/05/17 06:38:05;;;;;;;4.73;3.50;;;17.10;98.80;;;;;;5055750;28;20881;-64
2022/05/17 06:40:33;;;;;;;10.43;3.40;;;17.20;99.10;;;;;;5055626;28;20445;-64
2022/05/17 06:43:00;;;;;;;8.77;3.40;;;17.30;98.80;;;;;;5055507;28;20445;-64
2022/05/17 06:45:27;;;;;;;4.80;3.27;;;17.40;98.50;;;;;;5055668;28;20527;-64
2022/05/17 06:47:54;;;;;;;4.77;3.30;;;17.50;98.20;;;;;;5054909;28;20822;-64
2022/05/17 06:50:23;;;;;;;6.53;3.40;;;17.60;97.60;;;;;;5055229;28;20925;-64
2022/05/17 06:52:50;;;;;;;4.43;3.20;;;17.70;96.70;;;;;;5055179;28;21011;-64
2022/05/17 06:55:17;;;;;;;5.53;3.10;;;17.80;96.50;;;;;;5055115;28;20527;-64
2022/05/17 06:57:50;;;;;;;8.97;4.60;;;17.80;95.90;;;;;;5054569;28;20524;-64
2022/05/17 07:00:20;;;;;;;4.20;2.97;;;17.90;96.30;;;;;;5054271;28;20449;-64
2022/05/17 07:02:47;;;;;;;4.00;3.03;;;18.10;96.70;;;;;;5054046;28;20531;-65
2022/05/17 07:05:14;;;;;;;5.53;3.60;;;18.20;96.80;;;;;;5054943;28;20985;-64
2022/05/17 07:07:43;;;;;;;9.30;3.50;;;18.40;96.80;;;;;;5054917;28;20443;-64
2022/05/17 07:13:13;;;;;;;3.87;2.37;;;18.60;96.50;;;;;;5055040;28;21028;-64
2022/05/17 07:15:43;;;;;;;5.27;3.57;;;18.70;95.30;;;;;;5054982;28;20429;-63
2022/05/17 07:18:12;;;;;;;5.23;3.20;;;18.90;95.00;;;;;;5054446;28;20437;-64
2022/05/17 07:20:39;;;;;;;7.50;3.63;;;19.00;93.60;;;;;;5054863;28;20441;-64
2022/05/17 07:23:09;;;;;;;7.23;3.87;;;19.10;92.80;;;;;;5054507;28;20522;-65
2022/05/17 07:25:36;;;;;;;4.40;3.20;;;19.20;93.30;;;;;;5054680;28;20784;-64
2022/05/17 07:28:04;;;;;;;7.83;3.50;;;19.30;93.10;;;;;;5054249;28;20448;-64
2022/05/17 07:30:31;;;;;;;5.67;3.27;;;19.50;93.90;;;;;;5054360;28;20528;-64
2022/05/17 07:32:58;;;;;;;5.73;3.00;;;19.60;93.70;;;;;;5054504;28;20546;-64
2022/05/17 07:35:29;;;;;;;6.60;4.23;;;19.80;94.20;;;;;;5053944;28;20982;-64
2022/05/17 07:37:56;;;;;;;4.77;2.90;;;20.00;93.80;;;;;;5054385;28;20476;-65
2022/05/17 07:40:25;;;;;;;5.87;3.43;;;20.10;93.60;;;;;;5054094;28;20429;-64
2022/05/17 07:42:52;;;;;;;4.83;2.70;;;20.30;93.20;;;;;;5053815;28;20441;-65
2022/05/17 07:45:19;;;;;;;7.20;3.07;;;20.40;92.70;;;;;;5053983;28;20441;-66
2022/05/17 07:47:47;;;;;;;6.87;3.20;;;20.50;92.00;;;;;;5053929;28;20551;-65
2022/05/17 07:50:14;;;;;;;6.47;3.07;;;20.70;92.00;;;;;;5053916;28;20437;-65
2022/05/17 07:52:43;;;;;;;4.00;2.57;;;20.70;88.70;;;;;;5053627;28;20567;-64
2022/05/17 07:55:10;;;;;;;5.73;3.23;;;20.80;85.80;;;;;;5054101;28;20429;-64
2022/05/17 07:57:38;;;;;;;6.10;4.10;;;20.90;85.40;;;;;;5054036;28;20441;-64
2022/05/17 08:00:07;;;;;;;12.87;4.20;;;21.00;87.10;;;;;;5054123;28;20519;-64
2022/05/17 08:02:34;;;;;;;5.47;3.73;;;21.20;87.50;;;;;;5053963;28;20544;-65
2022/05/17 08:05:02;;;;;;;7.33;3.17;;;21.40;85.40;;;;;;5053955;28;20445;-64
2022/05/17 08:07:28;;;;;;;5.20;2.87;;;21.50;85.70;;;;;;5053690;28;20443;-65
2022/05/17 08:09:55;;;;;;;9.50;3.20;;;21.70;86.70;;;;;;5053319;28;20535;-65
2022/05/17 08:12:22;;;;;;;4.17;2.93;;;21.90;86.00;;;;;;5053671;28;20518;-65
2022/05/17 08:14:51;;;;;;;4.33;2.83;;;21.90;82.70;;;;;;5053783;28;20468;-65
2022/05/17 08:17:23;;;;;;;5.67;3.60;;;22.10;83.60;;;;;;5053783;28;20790;-65
2022/05/17 08:19:50;;;;;;;4.10;2.83;;;22.30;82.80;;;;;;5053223;28;20481;-65
2022/05/17 08:22:18;;;;;;;4.97;3.07;;;22.40;79.30;;;;;;5053498;28;20448;-65
2022/05/17 08:27:39;;;;;;;4.40;3.00;;;22.70;78.20;;;;;;5053305;28;20510;-65
2022/05/17 08:30:19;;;;;;;5.60;3.20;;;22.90;78.30;;;;;;5053231;28;20498;-65
2022/05/17 08:35:36;;;;;;;7.40;3.33;;;23.50;72.40;;;;;;5053288;28;20431;-65
2022/05/17 08:38:03;;;;;;;5.50;3.07;;;23.70;70.00;;;;;;5053478;28;20498;-65
2022/05/17 08:40:33;;;;;;;5.70;3.00;;;24.00;72.00;;;;;;5053301;28;20440;-64
2022/05/17 08:43:12;;;;;;;5.63;3.47;;;24.20;71.70;;;;;;5052823;28;20524;-65
2022/05/17 08:45:49;;;;;;;4.30;2.70;;;24.50;71.70;;;;;;5053267;28;20447;-65
2022/05/17 08:48:18;;;;;;;7.33;3.13;;;24.60;69.30;;;;;;5053100;28;20563;-65
2022/05/17 08:50:49;;;;;;;6.50;4.10;;;24.60;66.70;;;;;;5053042;28;20451;-65
2022/05/17 08:53:19;;;;;;;5.40;3.07;;;24.70;63.20;;;;;;5052700;28;20826;-66
2022/05/17 08:55:49;;;;;;;7.87;3.33;;;24.70;65.40;;;;;;5053288;28;20831;-65
2022/05/17 08:58:21;;;;;;;4.23;2.80;;;24.90;62.90;;;;;;5053148;28;20523;-65
2022/05/17 09:00:54;;;;;;;3.30;2.50;;;24.90;60.30;;;;;;5053151;28;20551;-65
2022/05/17 09:03:39;;;;;;;5.60;3.37;;;24.80;59.60;;;;;;5053101;28;20798;-65
2022/05/17 09:06:13;;;;;;;3.93;2.70;;;24.90;60.50;;;;;;5053084;28;20436;-65
2022/05/17 09:08:48;;;;;;;3.23;2.63;;;24.90;61.20;;;;;;5053045;28;20527;-65
2022/05/17 09:11:22;;;;;;;7.00;2.73;;;25.10;60.30;;;;;;5052849;28;20474;-65
2022/05/17 09:13:54;;;;;;;6.80;3.07;;;25.20;58.40;;;;;;5052721;28;20973;-65
2022/05/17 09:16:26;;;;;;;7.23;2.63;;;25.30;59.20;;;;;;5052766;28;20442;-65
2022/05/17 09:18:53;;;;;;;4.23;3.10;;;25.40;57.70;;;;;;5052813;28;20444;-65
2022/05/17 09:21:33;;;;;;;4.63;2.47;;;25.70;58.60;;;;;;5051698;28;20437;-65
2022/05/17 09:24:06;;;;;;;9.87;3.13;;;26.00;57.90;;;;;;5052717;28;20468;-65
2022/05/17 09:26:35;;;;;;;5.83;2.90;;;26.10;55.10;;;;;;5052858;28;20443;-65
2022/05/17 09:29:08;;;;;;;5.53;3.50;;;26.10;54.60;;;;;;5052715;28;20534;-65
2022/05/17 09:31:38;;;;;;;6.40;3.23;;;26.20;54.20;;;;;;5052844;28;20775;-65
2022/05/17 09:34:08;;;;;;;7.03;3.03;;;26.10;53.80;;;;;;5052457;28;20496;-65
2022/05/17 09:36:43;;;;;;;7.47;3.47;;;26.10;53.00;;;;;;5052504;28;20472;-65
2022/05/17 09:39:11;;;;;;;3.90;2.70;;;26.20;54.70;;;;;;5052804;28;20515;-65
2022/05/17 09:41:41;;;;;;;7.23;3.90;;;26.20;55.50;;;;;;5052415;28;20452;-65
2022/05/17 09:44:11;;;;;;;4.07;2.93;;;26.30;54.70;;;;;;5052499;28;20448;-65
2022/05/17 09:46:45;;;;;;;7.60;2.57;;;26.40;54.70;;;;;;5051374;28;20519;-65
2022/05/17 09:52:42;;;;;;;5.90;3.23;;;26.50;53.00;;;;;;5032217;28;20560;-65
2022/05/17 09:55:15;;;;;;;3.53;2.80;;;26.50;53.70;;;;;;5046944;28;20467;-65
2022/05/17 09:57:53;;;;;;;4.57;2.60;;;26.70;51.60;;;;;;5052595;28;20535;-66
2022/05/17 10:00:24;;;;;;;7.80;2.93;;;26.70;52.10;;;;;;5050527;28;20490;-65
2022/05/17 10:02:56;;;;;;;4.70;2.30;;;26.90;52.20;;;;;;5046605;28;20482;-65
2022/05/17 10:05:25;;;;;;;3.87;2.73;;;27.00;52.00;;;;;;5052667;28;20931;-65
2022/05/17 10:08:04;;;;;;;4.27;2.37;;;27.10;51.60;;;;;;5052031;28;20444;-66
2022/05/17 10:10:37;;;;;;;5.90;3.00;;;27.30;51.70;;;;;;5052425;28;20527;-65
2022/05/17 10:13:15;;;;;;;4.90;2.90;;;27.40;49.60;;;;;;5052432;28;20484;-65
2022/05/17 10:15:46;;;;;;;4.17;2.70;;;27.50;50.70;;;;;;5052141;28;20522;-65
2022/05/17 10:18:27;;;;;;;5.70;3.00;;;27.70;50.50;;;;;;5052242;28;20757;-65
2022/05/17 10:21:00;;;;;;;3.67;2.97;;;27.90;49.80;;;;;;5052059;28;20827;-66
2022/05/17 10:23:36;;;;;;;8.33;3.33;;;28.10;48.20;;;;;;5051969;28;20532;-66
2022/05/17 10:26:08;;;;;;;3.90;2.60;;;28.10;47.70;;;;;;5052200;28;20448;-65
2022/05/17 10:28:41;;;;;;;12.73;3.03;;;28.10;46.00;;;;;;5052261;28;20440;-65
2022/05/17 10:31:14;;;;;;;6.87;3.10;;;28.10;47.40;;;;;;5052227;28;20528;-65
2022/05/17 10:33:57;;;;;;;4.37;2.60;;;28.20;45.90;;;;;;5054282;28;20486;-65
2022/05/17 10:36:28;;;;;;;7.17;2.93;;;28.20;44.30;;;;;;5055204;28;20440;-65
2022/05/17 10:39:05;;;;;;;3.87;2.70;;;28.20;45.00;;;;;;5055487;28;20524;-65
2022/05/17 10:41:33;;;;;;;5.60;2.90;;;28.10;45.10;;;;;;5055596;28;20448;-65
2022/05/17 10:44:00;;;;;;;4.00;2.43;;;28.10;46.40;;;;;;5055040;28;20440;-65
2022/05/17 10:46:30;;;;;;;4.97;2.80;;;28.10;47.50;;;;;;5055180;28;20831;-65
2022/05/17 10:49:16;;;;;;;3.77;2.97;;;28.20;46.70;;;;;;5055498;28;20445;-65
2022/05/17 10:51:56;;;;;;;5.73;2.70;;;28.10;44.60;;;;;;5054758;28;20524;-68
2022/05/17 10:54:36;;;;;;;4.33;2.60;;;28.10;44.70;;;;;;5055582;28;20563;-65
2022/05/17 10:57:14;;;;;;;4.70;2.70;;;28.20;45.20;;;;;;5054965;28;20532;-65
2022/05/17 10:59:48;;;;;;;7.90;3.10;;;28.20;45.40;;;;;;5055411;28;20795;-65
2022/05/17 11:02:34;;;;;;;4.90;2.77;;;28.20;44.40;;;;;;5055195;28;20860;-65
2022/05/17 11:05:25;;;;;;;4.00;3.00;;;28.20;44.40;;;;;;5055223;28;20443;-65
2022/05/17 11:08:00;;;;;;;3.53;2.43;;;28.20;45.20;;;;;;5054910;28;20523;-65
2022/05/17 11:10:43;;;;;;;3.73;2.10;;;28.20;45.40;;;;;;5055019;28;20864;-65
2022/05/17 11:13:18;;;;;;;5.33;2.60;;;28.10;45.70;;;;;;5055279;28;20598;-65
2022/05/17 11:15:50;;;;;;;3.47;2.20;;;28.20;44.00;;;;;;5054939;28;20527;-66
2022/05/17 11:18:24;;;;;;;4.70;2.97;;;28.10;43.40;;;;;;5054791;28;20449;-65
2022/05/17 11:20:57;;;;;;;4.60;2.33;;;28.10;41.80;;;;;;5054732;28;20499;-65
2022/05/17 11:23:42;;;;;;;3.90;2.37;;;28.00;41.10;;;;;;5055042;28;20451;-65
2022/05/17 11:27:03;;;;;;;5.90;2.83;;;28.00;41.90;;;;;;5055008;28;20523;-65
2022/05/17 11:30:05;;;;;;;4.40;2.87;;;28.00;43.00;;;;;;5054404;28;20945;-65
2022/05/17 11:32:34;;;;;;;5.40;2.80;;;28.00;44.50;;;;;;4992780;28;20439;-65
2022/05/17 11:35:05;;;;;;;3.60;2.60;;;28.00;44.30;;;;;;5042972;28;20539;-65
2022/05/17 11:37:55;;;;;;;5.30;3.17;;;28.10;45.30;;;;;;5054136;28;20957;-65
2022/05/17 11:41:05;;;;;;;3.13;2.70;;;28.20;44.00;;;;;;5050212;28;20530;-65
2022/05/17 11:43:47;;;;;;;5.10;2.63;;;28.20;44.40;;;;;;5054558;28;20934;-65
2022/05/17 11:46:41;;;;;;;3.93;2.30;;;28.20;41.20;;;;;;5053192;28;20522;-66
2022/05/17 11:49:25;;;;;;;4.20;2.10;;;28.10;42.00;;;;;;5034033;28;20513;-68
2022/05/17 11:52:25;;;;;;;3.83;2.47;;;28.10;40.60;;;;;;5034443;28;20552;-66
2022/05/17 11:54:55;;;;;;;5.87;2.13;;;28.10;40.80;;;;;;5043811;28;20480;-65
2022/05/17 11:58:03;;;;;;;4.23;3.03;;;28.20;41.80;;;;;;5053951;28;20531;-65
2022/05/17 12:00:48;;;;;;;5.70;2.57;;;28.30;40.40;;;;;;5054415;28;20437;-65
2022/05/17 12:03:54;;;;;;;4.80;2.20;;;28.30;42.10;;;;;;5053791;28;20429;-66
2022/05/17 12:06:36;;;;;;;2.60;1.70;;;28.30;38.70;;;;;;5054079;28;20906;-65
2022/05/17 12:09:07;;;;;;;6.43;2.27;;;28.20;37.50;;;;;;5053583;28;20523;-65
2022/05/17 12:11:46;;;;;;;3.90;2.20;;;28.10;38.50;;;;;;5054032;28;20472;-65
2022/05/17 12:14:21;;;;;;;2.97;1.43;;;28.10;38.50;;;;;;5053883;28;20480;-66
2022/05/17 12:16:51;;;;;;;4.57;2.67;;;28.10;37.70;;;;;;5053746;28;20439;-66
2022/05/17 12:19:26;;;;;;;3.40;2.70;;;28.00;40.10;;;;;;5053872;28;20532;-66
2022/05/17 12:21:58;;;;;;;3.97;2.73;;;27.90;42.60;;;;;;5053586;28;21002;-66
2022/05/17 12:24:39;;;;;;;3.80;1.97;;;27.90;41.90;;;;;;5053646;28;20476;-65
2022/05/17 12:27:19;;;;;;;5.60;2.60;;;27.90;42.00;;;;;;5053826;28;20523;-65
2022/05/17 12:32:37;;;;;;;5.70;2.10;;;28.00;42.70;;;;;;5053364;28;20500;-65
2022/05/17 12:35:07;;;;;;;4.60;2.37;;;28.10;40.20;;;;;;5053392;28;20577;-65
2022/05/17 12:37:40;;;;;;;3.00;1.77;;;28.10;40.80;;;;;;5053364;28;20448;-66
2022/05/17 12:43:03;;;;;;;3.60;1.87;;;28.00;39.20;;;;;;5053314;28;20470;-65
2022/05/17 12:45:33;;;;;;;2.80;2.10;;;27.90;38.80;;;;;;5053349;28;20826;-65
2022/05/17 12:48:03;;;;;;;4.87;2.47;;;27.80;38.90;;;;;;5053259;28;20469;-65
2022/05/17 12:50:42;;;;;;;3.07;2.00;;;27.80;40.80;;;;;;5053302;28;20433;-65
2022/05/17 12:53:17;;;;;;;3.83;1.90;;;27.90;41.40;;;;;;5053223;28;20440;-65
2022/05/17 12:56:01;;;;;;;4.30;2.50;;;27.90;40.80;;;;;;5052706;28;20479;-65
2022/05/17 12:58:30;;;;;;;3.00;2.30;;;27.90;39.40;;;;;;5052543;28;20432;-65
2022/05/17 13:01:00;;;;;;;5.33;2.93;;;27.90;40.50;;;;;;5052961;28;20429;-65
2022/05/17 13:03:29;;;;;;;3.07;2.37;;;27.90;39.90;;;;;;5052754;28;20428;-65
2022/05/17 13:05:58;;;;;;;3.60;2.17;;;27.90;40.30;;;;;;5053157;28;20441;-65
2022/05/17 13:08:28;;;;;;;3.77;2.27;;;27.80;41.00;;;;;;5052431;28;20524;-66
2022/05/17 13:11:03;;;;;;;3.50;2.40;;;27.80;40.90;;;;;;5053104;28;21011;-65
2022/05/17 13:13:34;;;;;;;4.37;2.23;;;27.70;41.00;;;;;;5052881;28;20479;-65
2022/05/17 13:16:05;;;;;;;3.33;2.07;;;27.60;40.20;;;;;;5052899;28;20441;-65
2022/05/17 13:18:40;;;;;;;5.17;2.07;;;27.50;40.60;;;;;;5052877;28;20458;-65
2022/05/17 13:21:13;;;;;;;3.77;2.30;;;27.50;41.60;;;;;;5052911;28;21007;-65